ADDS METAR Data INFO
IDs: Format: Raw Decoded Include TAF

Data at: 2238 UTC 22 Aug 2017

KAUS 222153Z VRB03KT 10SM SCT070 37/18 A2997 RMK AO2 SLP134 T03670183
KAUS 222053Z VRB03KT 10SM SCT070 36/18 A3000 RMK AO2 SLP144 T03560183 58024
KAUS 221953Z 10SM SCT065 37/19 A3002 RMK AO2 SLP152 T03670189
KAUS 221853Z 12010KT 10SM SCT055 35/21 A3004 RMK AO2 SLP160 T03500206
KAUS 221753Z COR 20006KT 10SM SCT048 33/21 A3007 RMK AO2 SLP168 T03280211 10339 20217 58004
KAUS 221653Z 16005KT 10SM SCT042 33/22 A3008 RMK AO2 SLP173 T03280217
KAUS 221553Z 21006KT 10SM SCT035 31/22 A3008 RMK AO2 SLP174 T03110222
KAUS 221453Z 21005KT 10SM SCT019 SCT065 30/23 A3008 RMK AO2 SLP172 T03000233 53011
KAUS 221353Z 24005KT 10SM FEW016 FEW065 28/24 A3006 RMK AO2 SLP168 T02780239
KAUS 221253Z 00000KT 10SM FEW012 25/23 A3006 RMK AO2 SLP166 T02500228
KAUS 221153Z 00000KT 10SM FEW010 22/21 A3004 RMK AO2 SLP162 T02170211 10278 20217 55001
KAUS 221053Z 00000KT 10SM FEW010 23/22 A3003 RMK AO2 SLP158 T02280217
KAUS 220953Z 00000KT 10SM FEW010 24/22 A3004 RMK AO2 SLP159 T02390222
KAUS 220853Z 00000KT 10SM CLR 24/22 A3005 RMK AO2 SLP163 T02390222 57013
KAUS 220753Z 20003KT 10SM FEW009 25/22 A3006 RMK AO2 SLP166 T02500222
KAUS 220653Z 19003KT 10SM FEW018 26/23 A3008 RMK AO2 SLP174 T02610228
KAUS 220553Z 18007KT 10SM CLR 28/23 A3009 RMK AO2 SLP176 T02780228 10356 20278 403610233 51015
KAUS 220453Z 17008KT 10SM FEW085 29/23 A3009 RMK AO2 SLP176 T02890228
KAUS 220353Z 14013KT 10SM FEW070 30/22 A3007 RMK AO2 SLP170 T03000222
KAUS 220253Z 14008KT 10SM BKN070 31/22 A3004 RMK AO2 SLP161 T03060217 53019
KAUS 220153Z 17008KT 10SM SCT070 BKN085 31/21 A3001 RMK AO2 SLP150 T03110211
KAUS 220053Z 11004KT 10SM FEW070 FEW200 33/19 A2999 RMK AO2 SLP142 T03330189
KAUS 212353Z 10004KT 10SM FEW070 FEW200 36/18 A2999 RMK AO2 SLP141 T03560183 10361 20322 56011
KAUS 212253Z 16003KT 10SM SCT070 SCT200 36/18 A3000 RMK AO2 SLP145 T03560183
KAUS 212153Z 13004KT 10SM SCT075 36/19 A3001 RMK AO2 SLP149 T03560189
KAUS 212053Z 19008KT 140V220 10SM SCT065 35/19 A3002 RMK AO2 SLP153 T03500194 58017
KAUS 211953Z VRB06KT 10SM SCT060 33/20 A3005 RMK AO2 SLP163 T03330200
KAUS 211853Z VRB05KT 10SM SCT055 33/21 A3006 RMK AO2 SLP165 T03280211
KAUS 211753Z 17005KT 10SM SCT048 32/21 A3007 RMK AO2 SLP170 T03220211 10333 20244 58005
KAUS 211653Z 16007KT 110V190 10SM SCT038 33/22 A3008 RMK AO2 SLP174 T03280217
KAUS 211553Z 16006KT 10SM SCT024 31/22 A3009 RMK AO2 SLP175 T03110222
KAUS 211533Z 18006KT 10SM SCT024 31/23 A3009 RMK AO2 T03060233
KAUS 211453Z 19007KT 10SM SCT014 BKN023 29/24 A3008 RMK AO2 SLP174 T02890239 53008
KAUS 211408Z 20006KT 10SM SCT014 BKN023 28/24 A3008 RMK AO2 T02780239
KAUS 211353Z 20006KT 10SM SCT011 28/24 A3008 RMK AO2 SLP171 T02780244
KAUS 211253Z 00000KT 10SM FEW020 26/24 A3007 RMK AO2 SLP168 T02610239
KAUS 211216Z 18004KT 10SM FEW011 SCT020 24/23 A3006 RMK AO2 T02440233
KAUS 211153Z 20003KT 10SM BKN010 BKN017 25/23 A3006 RMK AO2 SLP166 T02500233 10278 20233 53001
KAUS 211126Z 00000KT 10SM BKN011 24/23 A3006 RMK AO2 T02440228
KAUS 211053Z 00000KT 10SM FEW013 23/22 A3006 RMK AO2 SLP166 T02330222